createdAt,value
2023-02-19T00:00:23.772Z,93.30
2023-02-19T00:01:23.894Z,95.12
2023-02-19T00:02:24.024Z,100.55
2023-02-19T00:03:24.123Z,100.54
2023-02-19T00:04:24.186Z,101.26
2023-02-19T00:05:24.295Z,97.36
2023-02-19T00:06:24.409Z,86.57
2023-02-19T00:07:24.500Z,77.65
2023-02-19T00:08:24.618Z,72.38
2023-02-19T00:09:24.708Z,73.08
2023-02-19T00:10:24.776Z,78.11
2023-02-19T00:11:24.839Z,77.31
2023-02-19T00:12:24.913Z,77.67
2023-02-19T00:13:25.003Z,77.70
2023-02-19T00:14:25.081Z,60.62
2023-02-19T00:15:25.202Z,52.39
2023-02-19T00:16:25.299Z,57.41
2023-02-19T00:17:25.415Z,53.71
2023-02-19T00:18:25.519Z,49.27
2023-02-19T00:19:25.589Z,71.34
2023-02-19T00:20:25.697Z,103.79
2023-02-19T00:21:25.811Z,107.19
2023-02-19T00:22:25.919Z,100.27
2023-02-19T00:23:26.018Z,99.08
2023-02-19T00:24:26.137Z,98.40
2023-02-19T00:25:26.190Z,101.34
2023-02-19T00:26:26.273Z,83.55
2023-02-19T00:27:26.364Z,78.08
2023-02-19T00:43:27.900Z,24.19
2023-02-19T02:00:37.942Z,159.82
2023-02-19T02:01:38.187Z,157.83
2023-02-19T02:02:38.247Z,152.11
2023-02-19T02:03:38.399Z,135.95
2023-02-19T02:04:38.544Z,125.44
2023-02-19T02:05:38.684Z,119.72
2023-02-19T02:06:38.816Z,106.29
2023-02-19T02:07:38.943Z,101.05
2023-02-19T02:08:39.090Z,93.57
2023-02-19T02:09:39.200Z,89.30
2023-02-19T02:10:39.300Z,87.52
2023-02-19T02:11:39.374Z,89.06
2023-02-19T02:12:39.456Z,84.71
2023-02-19T02:13:39.547Z,83.53
2023-02-19T02:14:39.648Z,84.16
2023-02-19T02:15:39.769Z,81.07
2023-02-19T02:16:39.917Z,74.30
2023-02-19T02:17:40.054Z,71.55
2023-02-19T02:18:40.183Z,71.48
2023-02-19T02:19:40.309Z,71.57
2023-02-19T02:20:40.404Z,71.23
2023-02-19T02:21:40.527Z,54.56
2023-02-19T02:22:40.622Z,51.52
2023-02-19T02:23:40.710Z,45.82
2023-02-19T02:24:40.812Z,28.25
2023-02-19T02:25:40.939Z,24.61
2023-02-19T02:26:41.110Z,24.95
2023-02-19T02:27:41.177Z,28.40
2023-02-19T02:28:41.266Z,63.62
2023-02-19T02:29:41.402Z,72.96
2023-02-19T02:30:41.519Z,87.96
2023-02-19T02:31:41.786Z,94.28
2023-02-19T03:24:47.873Z,17.08
2023-02-19T03:25:47.968Z,16.02
2023-02-19T03:26:48.034Z,20.33
2023-02-19T03:27:48.132Z,27.73
2023-02-19T03:28:48.200Z,31.13
2023-02-19T03:29:48.308Z,37.31
2023-02-19T03:30:48.416Z,41.83
2023-02-19T03:31:48.639Z,42.23
2023-02-19T05:05:57.872Z,59.88
2023-02-19T05:06:57.980Z,62.08
2023-02-19T05:07:58.113Z,60.94
2023-02-19T05:08:58.224Z,62.78
2023-02-19T05:09:58.332Z,56.51
2023-02-19T05:10:58.413Z,51.63
2023-02-19T05:11:58.503Z,41.61
2023-02-19T05:12:58.559Z,33.50
2023-02-19T06:43:07.873Z,175.71
2023-02-19T06:44:07.954Z,187.26
2023-02-19T06:45:08.116Z,267.76
2023-02-19T08:24:17.806Z,217.82
2023-02-19T08:25:17.811Z,233.09
2023-02-19T08:26:17.833Z,238.74
2023-02-19T08:27:17.840Z,227.55
2023-02-19T08:28:17.857Z,223.83
2023-02-19T08:29:17.861Z,222.19
2023-02-19T08:30:17.944Z,227.45
2023-02-19T08:31:18.001Z,243.40
2023-02-19T08:32:17.943Z,248.40
2023-02-19T08:33:17.938Z,244.95
2023-02-19T08:34:17.958Z,222.35
2023-02-19T08:35:17.976Z,232.76
2023-02-19T08:36:18.051Z,218.55
2023-02-19T08:37:18.014Z,204.57
2023-02-19T08:38:18.041Z,210.49
2023-02-19T08:39:20.087Z,212.15
2023-02-19T08:40:18.059Z,220.15
2023-02-19T08:41:18.094Z,209.39
2023-02-19T08:42:18.059Z,201.68
2023-02-19T08:43:18.054Z,201.35
2023-02-19T08:44:18.080Z,205.80
2023-02-19T08:45:18.067Z,199.48
2023-02-19T08:46:18.135Z,193.85
2023-02-19T08:47:18.060Z,190.46
2023-02-19T08:48:18.057Z,192.98
2023-02-19T08:49:18.065Z,185.08
2023-02-19T08:50:18.056Z,187.38
2023-02-19T08:51:18.060Z,184.55
2023-02-19T08:52:18.131Z,185.69
2023-02-19T08:53:18.053Z,183.72
2023-02-19T08:54:18.057Z,184.23
2023-02-19T08:55:18.070Z,185.41
2023-02-19T08:56:18.078Z,175.92
2023-02-19T08:57:18.097Z,171.32
2023-02-19T08:58:18.103Z,173.18
2023-02-19T08:59:18.112Z,179.97
2023-02-19T09:00:18.131Z,191.46
2023-02-19T09:01:18.231Z,198.43
2023-02-19T09:02:18.132Z,200.56
2023-02-19T09:03:18.126Z,207.80
2023-02-19T09:04:18.163Z,215.47
2023-02-19T09:05:18.097Z,212.70
2023-02-19T09:06:18.091Z,213.57
2023-02-19T09:07:18.072Z,192.82
2023-02-19T09:08:18.064Z,183.30
2023-02-19T09:09:18.066Z,186.72
2023-02-19T09:10:18.056Z,185.11
2023-02-19T09:11:18.052Z,192.65
2023-02-19T09:12:18.022Z,198.43
2023-02-19T09:13:18.019Z,204.29
2023-02-19T09:14:18.018Z,186.16
2023-02-19T09:15:18.013Z,183.06
2023-02-19T09:16:18.005Z,179.90
2023-02-19T09:17:17.977Z,185.21
2023-02-19T09:18:17.973Z,190.83
2023-02-19T09:19:17.960Z,184.47
2023-02-19T09:20:17.942Z,167.98
2023-02-19T09:21:17.928Z,159.58
2023-02-19T09:22:17.936Z,154.23
2023-02-19T09:23:17.923Z,150.52
2023-02-19T09:24:17.961Z,145.11
2023-02-19T09:25:18.008Z,149.92
2023-02-19T09:26:18.031Z,149.73
2023-02-19T09:27:18.034Z,151.75
2023-02-19T09:28:18.018Z,158.82
2023-02-19T09:29:18.012Z,158.75
2023-02-19T09:30:18.054Z,160.70
2023-02-19T09:31:18.075Z,158.82
2023-02-19T09:32:19.342Z,153.18
2023-02-19T09:33:18.082Z,145.68
2023-02-19T09:34:18.126Z,137.34
2023-02-19T09:42:18.318Z,140.59
2023-02-19T09:43:18.286Z,157.74
2023-02-19T09:44:18.301Z,157.07
2023-02-19T09:45:18.300Z,147.65
2023-02-19T10:42:27.934Z,55.32
2023-02-19T10:43:28.079Z,54.78
2023-02-19T10:44:28.356Z,47.86
2023-02-19T10:45:28.540Z,48.79
2023-02-19T10:46:28.780Z,50.67
2023-02-19T10:47:28.933Z,56.56
2023-02-19T10:48:29.130Z,55.19
2023-02-19T10:49:29.343Z,56.93
2023-02-19T10:50:29.555Z,58.54
2023-02-19T10:51:29.758Z,70.95
2023-02-19T10:52:29.973Z,64.54
2023-02-19T10:53:30.199Z,49.99
2023-02-19T10:54:30.437Z,49.58
2023-02-19T10:55:30.634Z,49.21
2023-02-19T10:56:30.826Z,49.30
2023-02-19T10:57:31.027Z,50.57
2023-02-19T10:58:31.231Z,53.42
2023-02-19T10:59:31.456Z,44.53
2023-02-19T11:00:31.671Z,30.01
2023-02-19T11:01:31.890Z,25.06
2023-02-19T11:02:32.055Z,25.00
2023-02-19T11:03:32.235Z,31.34
2023-02-19T11:04:32.432Z,40.92
2023-02-19T11:05:32.619Z,39.60
2023-02-19T11:06:34.951Z,43.14
2023-02-19T11:07:32.770Z,41.71
2023-02-19T11:08:32.787Z,42.92
2023-02-19T11:09:32.798Z,40.57
2023-02-19T11:10:33.070Z,39.70
2023-02-19T11:11:32.836Z,39.15
2023-02-19T11:12:32.855Z,40.39
2023-02-19T11:13:33.051Z,41.38
2023-02-19T11:14:33.174Z,41.45
2023-02-19T11:15:33.428Z,41.75
2023-02-19T11:16:33.597Z,40.48
2023-02-19T11:17:33.781Z,37.35
2023-02-19T11:18:33.988Z,34.81
2023-02-19T11:19:34.172Z,52.41
2023-02-19T11:20:34.348Z,53.15
2023-02-19T11:21:34.501Z,47.96
2023-02-19T11:22:34.682Z,49.17
2023-02-19T11:23:34.925Z,46.97
2023-02-19T11:24:35.184Z,48.16
2023-02-19T11:25:35.286Z,58.82
2023-02-19T11:26:35.478Z,65.41
2023-02-19T11:27:35.675Z,61.23
2023-02-19T11:28:35.859Z,63.24
2023-02-19T11:29:36.021Z,65.82
2023-02-19T11:30:36.610Z,57.85
2023-02-19T11:31:36.337Z,69.54
2023-02-19T11:32:36.107Z,55.34
2023-02-19T11:33:36.272Z,49.87
2023-02-19T11:34:36.085Z,40.20
2023-02-19T11:35:36.122Z,42.59
2023-02-19T11:36:36.327Z,50.27
2023-02-19T11:37:36.580Z,43.34
2023-02-19T11:38:36.764Z,36.96
2023-02-19T11:39:36.962Z,30.36
2023-02-19T11:40:37.174Z,36.16
2023-02-19T11:41:37.356Z,34.02
2023-02-19T11:42:37.550Z,30.86
2023-02-19T11:43:37.759Z,27.21
2023-02-19T11:44:37.943Z,32.96
2023-02-19T11:45:38.151Z,28.67
2023-02-19T11:46:38.381Z,28.89
2023-02-19T11:47:38.565Z,25.48
2023-02-19T11:48:38.795Z,25.76
2023-02-19T11:49:38.973Z,24.91
2023-02-19T11:50:39.150Z,26.38
2023-02-19T11:51:39.345Z,24.37
2023-02-19T11:52:39.527Z,27.18
2023-02-19T11:53:39.732Z,29.91
2023-02-19T11:54:39.915Z,30.68
2023-02-19T11:55:40.099Z,31.99
2023-02-19T11:56:40.316Z,31.31
2023-02-19T11:57:40.482Z,33.14
2023-02-19T11:58:40.692Z,32.09
2023-02-19T11:59:40.851Z,24.28
2023-02-19T12:00:41.051Z,25.00
2023-02-19T12:01:41.349Z,24.28
2023-02-19T12:02:41.452Z,23.20
2023-02-19T12:03:41.788Z,29.16
2023-02-19T12:04:41.834Z,27.44
2023-02-19T12:05:41.989Z,31.00
2023-02-19T12:06:42.199Z,25.07
2023-02-19T12:07:42.430Z,25.40
2023-02-19T12:08:42.667Z,25.00
2023-02-19T12:09:42.917Z,29.04
2023-02-19T12:10:43.157Z,25.08
2023-02-19T15:09:57.825Z,84.52
2023-02-19T15:10:58.040Z,84.69
2023-02-19T15:11:58.231Z,88.49
2023-02-19T15:12:58.423Z,92.51
2023-02-19T15:13:58.587Z,96.38
2023-02-19T15:14:58.659Z,97.14
2023-02-19T15:15:58.940Z,98.64
2023-02-19T15:16:59.050Z,95.37
2023-02-19T15:17:59.245Z,102.91
2023-02-19T15:18:59.375Z,102.48
2023-02-19T15:19:59.567Z,98.50
2023-02-19T15:20:59.636Z,99.23
2023-02-19T15:21:59.812Z,93.18
2023-02-19T15:22:59.998Z,94.91
2023-02-19T15:24:00.153Z,105.42
2023-02-19T15:25:00.441Z,109.14
2023-02-19T15:26:00.634Z,104.44
2023-02-19T15:27:00.820Z,111.25
2023-02-19T16:05:07.920Z,141.53
2023-02-19T16:06:08.109Z,152.34
2023-02-19T16:07:08.276Z,150.29
2023-02-19T16:08:08.452Z,148.63
2023-02-19T16:58:18.013Z,216.86
2023-02-19T16:59:18.041Z,219.48
2023-02-19T17:00:18.283Z,222.13
2023-02-19T17:01:18.640Z,218.97
2023-02-19T17:02:18.708Z,206.84
2023-02-19T17:03:18.942Z,215.00
2023-02-19T17:04:19.210Z,212.48
2023-02-19T17:05:19.360Z,211.19
2023-02-19T17:06:19.500Z,199.85
2023-02-19T17:07:19.664Z,195.14
2023-02-19T17:08:19.886Z,189.76
2023-02-19T17:09:20.083Z,190.80
2023-02-19T17:48:27.988Z,186.90
2023-02-19T17:49:28.248Z,184.10
2023-02-19T19:26:47.923Z,247.58
2023-02-19T19:27:48.099Z,237.57
2023-02-19T19:28:48.281Z,227.28
2023-02-19T19:29:48.451Z,236.82
2023-02-19T19:30:48.633Z,250.71
2023-02-19T19:31:48.848Z,236.57
2023-02-19T19:32:48.999Z,234.74
2023-02-19T19:33:49.147Z,231.63
2023-02-19T20:15:58.018Z,229.47
2023-02-19T20:16:58.144Z,231.18
2023-02-19T20:17:58.311Z,233.14
2023-02-19T20:18:58.491Z,242.66
2023-02-19T20:19:58.766Z,239.21
2023-02-19T20:20:58.934Z,241.99
2023-02-19T20:21:59.099Z,245.14
2023-02-19T20:22:59.361Z,250.29
2023-02-19T20:23:59.528Z,249.92
2023-02-19T20:24:59.694Z,250.00
2023-02-19T20:25:59.881Z,241.47
2023-02-19T20:27:00.054Z,230.67
2023-02-19T20:28:00.245Z,229.55
2023-02-19T20:29:00.465Z,233.38
2023-02-19T20:30:00.593Z,238.81
2023-02-19T20:31:00.898Z,214.80
2023-02-19T20:32:01.100Z,223.73
2023-02-19T20:33:01.153Z,233.77
2023-02-19T20:34:01.371Z,232.98
2023-02-19T20:35:01.591Z,233.04
2023-02-19T20:36:01.790Z,233.76
2023-02-19T20:37:01.962Z,233.18
2023-02-19T20:38:02.171Z,235.36
2023-02-19T21:32:07.929Z,236.27
2023-02-19T21:33:07.877Z,233.49
2023-02-19T21:34:07.968Z,237.06
2023-02-19T21:35:08.049Z,240.36
2023-02-19T21:36:08.133Z,247.33
2023-02-19T21:37:08.220Z,250.00
2023-02-19T21:38:08.292Z,250.00
2023-02-19T21:39:08.362Z,248.56
2023-02-19T21:40:08.409Z,245.43
2023-02-19T21:41:08.460Z,235.95
2023-02-19T21:42:08.526Z,232.91
2023-02-19T21:43:08.571Z,230.07
2023-02-19T21:44:08.625Z,232.41
2023-02-19T21:45:08.674Z,231.77
2023-02-19T21:46:08.729Z,222.63
2023-02-19T21:47:08.780Z,222.37
2023-02-19T21:48:08.932Z,221.02
2023-02-19T21:49:08.991Z,219.42
2023-02-19T21:50:09.043Z,222.17
2023-02-19T21:51:09.084Z,221.71
2023-02-19T21:52:09.141Z,232.32
2023-02-19T21:53:09.185Z,235.24
2023-02-19T21:54:09.252Z,225.35
2023-02-19T21:55:09.292Z,227.63
2023-02-19T21:56:09.348Z,234.69
2023-02-19T21:57:09.408Z,241.43
2023-02-19T21:58:09.423Z,250.00
2023-02-19T21:59:09.488Z,244.78
2023-02-19T22:00:09.517Z,241.60
2023-02-19T22:01:09.610Z,232.41
2023-02-19T22:02:09.654Z,222.65
2023-02-19T22:03:09.734Z,218.88
2023-02-19T22:04:09.779Z,222.88
2023-02-19T22:05:09.839Z,213.52
2023-02-19T22:06:10.285Z,210.88
2023-02-19T22:07:09.970Z,208.12
2023-02-19T22:08:10.061Z,211.13
2023-02-19T22:09:10.173Z,225.76
2023-02-19T22:10:10.280Z,223.11
2023-02-19T22:11:10.368Z,211.98
2023-02-19T22:12:10.449Z,205.47
2023-02-19T22:13:10.537Z,205.59
2023-02-19T22:14:10.617Z,209.86
2023-02-19T22:15:10.701Z,209.18
2023-02-19T22:16:11.231Z,207.98
2023-02-19T22:17:10.867Z,207.96
2023-02-19T22:18:10.960Z,202.13
2023-02-19T22:19:11.066Z,201.93
2023-02-19T22:20:11.115Z,204.37
2023-02-19T22:21:11.175Z,205.12
2023-02-19T22:22:11.221Z,204.04
2023-02-19T22:23:11.268Z,200.56
2023-02-19T22:24:11.433Z,199.49
2023-02-19T22:25:11.612Z,199.94
2023-02-19T22:26:12.221Z,198.26
2023-02-19T22:27:11.887Z,197.16
2023-02-19T22:28:11.958Z,199.73
2023-02-19T22:29:12.038Z,197.88
2023-02-19T22:30:12.138Z,191.39
2023-02-19T22:31:12.186Z,187.91
2023-02-19T22:32:12.354Z,185.31
2023-02-19T22:33:12.333Z,187.34
2023-02-19T22:34:12.411Z,190.04
2023-02-19T22:35:14.794Z,190.44
2023-02-19T22:36:12.816Z,193.57
2023-02-19T22:37:12.551Z,191.70
2023-02-19T22:38:12.574Z,194.04
2023-02-19T22:39:12.609Z,197.24
2023-02-19T22:40:12.640Z,199.53
2023-02-19T22:41:12.689Z,200.18
2023-02-19T22:42:12.725Z,198.96
2023-02-19T22:43:12.753Z,197.99
2023-02-19T22:44:12.840Z,198.71
2023-02-19T22:45:12.820Z,197.38
2023-02-19T22:46:13.204Z,196.61
2023-02-19T22:47:12.891Z,203.14
2023-02-19T22:48:16.883Z,205.61
2023-02-19T22:49:13.965Z,202.05
2023-02-19T22:50:12.964Z,196.30
2023-02-19T22:51:13.035Z,193.84
2023-02-19T22:52:13.030Z,192.96
2023-02-19T22:53:13.057Z,195.49
2023-02-19T22:54:13.085Z,199.82
2023-02-19T22:55:13.124Z,195.85
2023-02-19T22:56:13.763Z,194.43
2023-02-19T22:57:13.172Z,197.26
2023-02-19T22:58:13.271Z,193.90
2023-02-19T22:59:13.366Z,192.98
2023-02-19T23:00:13.455Z,201.41
2023-02-19T23:01:13.662Z,207.40
2023-02-19T23:02:13.654Z,206.13
2023-02-19T23:03:13.734Z,206.88
2023-02-19T23:04:13.867Z,211.33
2023-02-19T23:05:13.876Z,210.89
2023-02-19T23:06:14.241Z,210.11
2023-02-19T23:07:14.015Z,204.87
2023-02-19T23:08:14.125Z,200.48
2023-02-19T23:09:14.213Z,186.58
2023-02-19T23:10:14.323Z,182.98
2023-02-19T23:11:14.388Z,191.01
2023-02-19T23:12:14.476Z,202.79
2023-02-19T23:13:14.537Z,211.38
2023-02-19T23:14:14.606Z,214.02
2023-02-19T23:15:14.746Z,209.48
2023-02-19T23:16:15.248Z,211.84
2023-02-19T23:17:15.055Z,214.04
2023-02-19T23:18:15.171Z,222.62
2023-02-19T23:46:17.973Z,235.37
2023-02-19T23:47:18.022Z,231.10
2023-02-19T23:48:18.258Z,230.62
2023-02-19T23:49:18.515Z,237.18
